createdAt,value
2018-07-20T04:59:01.750Z,5.23
2018-07-20T05:01:34.469Z,5.33
2018-07-20T05:04:04.656Z,5.33
2018-07-20T05:06:43.225Z,5.70
2018-07-20T05:09:13.381Z,5.67
2018-07-20T05:11:43.643Z,5.20
2018-07-20T05:14:13.594Z,5.27
2018-07-20T05:16:44.878Z,5.17
2018-07-20T05:19:15.514Z,4.93
2018-07-20T05:21:45.738Z,4.97
2018-07-20T05:24:15.712Z,5.20
2018-07-20T05:26:45.863Z,5.03
2018-07-20T05:29:16.387Z,5.30
2018-07-20T05:31:46.724Z,5.07
2018-07-20T05:34:17.811Z,5.43
2018-07-20T05:36:54.425Z,5.17
2018-07-20T05:39:25.530Z,5.43
2018-07-20T05:42:05.031Z,4.97
2018-07-20T05:44:36.904Z,4.77
2018-07-20T05:47:08.176Z,5.70
2018-07-20T05:49:54.437Z,5.20
2018-07-20T05:52:53.886Z,4.90
2018-07-20T05:55:32.258Z,5.23
2018-07-20T05:58:06.579Z,5.57
2018-07-20T06:00:51.008Z,8.90
2018-07-20T06:03:25.653Z,9.87
2018-07-20T06:06:00.734Z,7.50
2018-07-20T06:08:38.409Z,6.87
2018-07-20T06:11:12.027Z,7.20
2018-07-20T06:13:48.585Z,5.60
2018-07-20T06:16:23.952Z,8.73
2018-07-20T06:18:57.017Z,8.43
2018-07-20T06:21:33.108Z,5.73
2018-07-20T06:24:10.804Z,5.43
2018-07-20T06:26:49.952Z,6.07
2018-07-20T06:29:20.944Z,5.60
2018-07-20T06:31:53.232Z,5.37
2018-07-20T06:34:26.946Z,5.20
2018-07-20T06:37:07.533Z,5.23
2018-07-20T06:39:48.384Z,5.27
2018-07-20T06:42:28.635Z,4.57
2018-07-20T06:45:13.007Z,5.30
2018-07-20T06:47:53.400Z,5.63
2018-07-20T06:50:37.739Z,5.30
2018-07-20T06:53:08.072Z,4.93
2018-07-20T06:55:40.383Z,5.43
2018-07-20T06:58:10.366Z,5.40
2018-07-20T07:00:40.251Z,4.97
2018-07-20T07:03:10.430Z,5.17
2018-07-20T07:05:41.990Z,4.20
2018-07-20T07:08:12.001Z,4.60
2018-07-20T07:10:46.197Z,5.40
2018-07-20T07:13:16.014Z,5.37
2018-07-20T07:15:54.021Z,4.70
2018-07-20T07:18:32.291Z,5.23
2018-07-20T07:21:09.542Z,5.20
2018-07-20T07:23:40.302Z,5.00
2018-07-20T07:26:12.724Z,5.30
2018-07-20T07:28:46.903Z,6.43
2018-07-20T07:31:17.850Z,5.83
2018-07-20T07:33:48.059Z,5.77
2018-07-20T07:36:18.169Z,5.33
2018-07-20T07:38:48.630Z,5.57
2018-07-20T07:41:23.333Z,5.30
2018-07-20T07:43:53.831Z,5.00
2018-07-20T07:46:23.571Z,4.93
2018-07-20T07:48:53.754Z,4.90
2018-07-20T07:51:23.449Z,5.30
2018-07-20T07:53:53.793Z,5.47
2018-07-20T07:56:25.026Z,4.83
2018-07-20T07:58:54.848Z,5.13
2018-07-20T08:01:24.641Z,4.70
2018-07-20T08:03:55.761Z,5.03
2018-07-20T08:06:26.538Z,5.37
2018-07-20T08:08:56.428Z,5.40
2018-07-20T08:11:28.503Z,5.37
2018-07-20T08:13:58.323Z,7.80
2018-07-20T08:16:28.133Z,5.20
2018-07-20T08:18:57.900Z,5.00
2018-07-20T08:21:27.733Z,4.30
2018-07-20T08:23:57.668Z,5.17
2018-07-20T08:26:27.736Z,4.77
2018-07-20T08:28:57.461Z,4.77
2018-07-20T08:31:27.321Z,5.00
2018-07-20T08:33:57.103Z,5.30
2018-07-20T08:39:45.299Z,4.57
2018-07-20T08:42:15.172Z,4.83
2018-07-20T08:44:45.364Z,4.77
2018-07-20T08:47:15.509Z,4.33
2018-07-20T08:49:51.640Z,4.17
2018-07-20T08:52:21.490Z,4.30
2018-07-20T08:54:51.838Z,4.80
2018-07-20T08:57:21.719Z,3.93
2018-07-20T09:05:53.262Z,4.23
2018-07-20T09:08:37.850Z,4.87
2018-07-20T09:11:07.874Z,3.90
2018-07-20T09:13:38.142Z,4.00
2018-07-20T09:16:08.630Z,3.93
2018-07-20T09:18:39.637Z,4.40
2018-07-20T09:21:09.616Z,5.07
2018-07-20T09:23:39.711Z,4.30
2018-07-20T09:26:11.805Z,3.80
2018-07-20T09:28:42.745Z,4.13
2018-07-20T09:31:15.292Z,4.27
2018-07-20T09:33:45.482Z,5.23
2018-07-20T09:36:15.663Z,4.03
2018-07-20T09:38:49.022Z,5.33
2018-07-20T09:44:28.210Z,4.20
2018-07-20T09:46:58.740Z,3.97
2018-07-20T09:49:34.289Z,4.40
2018-07-20T09:52:11.034Z,3.83
2018-07-20T09:57:32.674Z,4.00
2018-07-20T10:00:07.355Z,3.30
2018-07-20T10:02:39.786Z,3.60
2018-07-20T10:05:10.035Z,3.87
2018-07-20T10:07:41.466Z,4.07
2018-07-20T10:10:11.679Z,3.60
2018-07-20T10:12:42.151Z,3.37
2018-07-20T10:15:15.493Z,3.63
2018-07-20T10:17:45.749Z,4.33
2018-07-20T10:20:21.629Z,4.10
2018-07-20T10:25:46.515Z,3.53
2018-07-20T10:28:18.966Z,3.53
2018-07-20T10:33:48.859Z,3.60
2018-07-20T10:36:35.363Z,3.83
2018-07-20T10:39:14.361Z,3.70
2018-07-20T10:41:45.129Z,3.73
2018-07-20T10:44:16.027Z,3.90
2018-07-20T10:46:47.371Z,3.27
2018-07-20T10:49:22.727Z,3.57
2018-07-20T10:55:13.874Z,3.53
2018-07-20T10:57:43.993Z,4.53
2018-07-20T11:00:15.705Z,4.37
2018-07-20T11:02:49.844Z,3.60
2018-07-20T11:05:20.290Z,3.50
2018-07-20T11:07:51.682Z,3.97
2018-07-20T11:13:30.138Z,4.50
2018-07-20T11:16:01.622Z,3.93
2018-07-20T11:18:32.382Z,4.33
2018-07-20T11:21:03.754Z,3.77
2018-07-20T11:23:35.370Z,4.23
2018-07-20T11:26:11.163Z,3.80
2018-07-20T11:28:44.180Z,4.20
2018-07-20T11:31:14.633Z,4.17
2018-07-20T11:33:44.862Z,3.80
2018-07-20T11:36:15.187Z,4.00
2018-07-20T11:38:50.311Z,4.30
2018-07-20T11:41:24.887Z,3.90
2018-07-20T11:43:56.341Z,3.77
2018-07-20T11:46:27.068Z,4.37
2018-07-20T11:49:02.894Z,4.13
2018-07-20T11:51:38.449Z,4.13
2018-07-20T11:54:08.413Z,4.20
2018-07-20T11:56:38.244Z,3.90
2018-07-20T11:59:08.156Z,4.57
2018-07-20T12:01:39.177Z,4.30
2018-07-20T12:04:12.356Z,4.13
2018-07-20T12:06:44.453Z,3.63
2018-07-20T12:09:14.561Z,4.00
2018-07-20T12:11:44.895Z,4.27
2018-07-20T12:14:18.108Z,4.33
2018-07-20T12:16:50.156Z,3.93
2018-07-20T12:19:30.614Z,4.00
2018-07-20T12:22:07.587Z,4.23
2018-07-20T12:24:39.435Z,3.93
2018-07-20T12:27:09.606Z,3.67
2018-07-20T12:29:39.571Z,3.77
2018-07-20T12:32:09.667Z,3.97
2018-07-20T12:34:39.963Z,3.70
2018-07-20T12:37:10.076Z,3.97
2018-07-20T12:39:39.947Z,4.30
2018-07-20T12:42:09.704Z,4.20
2018-07-20T12:44:39.715Z,4.00
2018-07-20T12:47:09.489Z,4.20
2018-07-20T12:49:39.248Z,4.27
2018-07-20T12:52:09.282Z,4.27
2018-07-20T12:54:39.738Z,3.93
2018-07-20T12:57:10.142Z,4.17
2018-07-20T12:59:43.222Z,4.23
2018-07-20T13:02:13.287Z,4.47
2018-07-20T13:04:45.436Z,3.93
2018-07-20T13:07:49.551Z,4.33
2018-07-20T13:10:19.519Z,4.30
2018-07-20T13:12:49.384Z,4.30
2018-07-20T13:15:24.488Z,4.17
2018-07-20T13:17:54.485Z,4.20
2018-07-20T13:20:24.508Z,3.93
2018-07-20T13:22:54.449Z,4.00
2018-07-20T13:25:24.375Z,3.60
2018-07-20T13:27:56.140Z,4.10
2018-07-20T13:30:27.940Z,3.97
2018-07-20T13:32:58.027Z,3.80
2018-07-20T13:35:28.160Z,3.97
2018-07-20T13:37:58.481Z,4.00
2018-07-20T13:40:29.851Z,4.20
2018-07-20T13:43:26.746Z,3.43
2018-07-20T13:45:58.557Z,4.20
2018-07-20T13:48:28.414Z,4.07
2018-07-20T13:50:58.572Z,3.70
2018-07-20T13:53:28.549Z,3.67
2018-07-20T13:56:23.910Z,4.13
2018-07-20T13:58:54.115Z,3.60
2018-07-20T14:01:24.358Z,3.97
2018-07-20T14:03:54.747Z,3.80
2018-07-20T14:06:33.113Z,4.13
2018-07-20T14:09:03.260Z,3.63
2018-07-20T14:11:33.890Z,3.50
2018-07-20T14:14:08.998Z,3.20
2018-07-20T14:17:15.124Z,3.40
2018-07-20T14:19:49.049Z,3.20
2018-07-20T14:22:20.257Z,3.37
2018-07-20T14:24:51.517Z,3.80
2018-07-20T14:27:22.891Z,4.10
2018-07-20T14:29:55.142Z,3.77
2018-07-20T14:32:26.572Z,3.70
2018-07-20T14:34:57.345Z,3.80
2018-07-20T14:37:30.710Z,3.23
2018-07-20T14:40:01.814Z,3.63
2018-07-20T14:42:41.077Z,3.33
2018-07-20T14:45:12.645Z,3.57
2018-07-20T14:47:52.226Z,3.30
2018-07-20T14:50:22.470Z,3.50
2018-07-20T14:52:52.560Z,3.20
2018-07-20T14:55:23.177Z,3.60
2018-07-20T14:57:54.746Z,3.53
2018-07-20T15:00:26.525Z,3.13
2018-07-20T15:02:57.523Z,3.60
2018-07-20T15:05:29.664Z,3.70
2018-07-20T15:08:09.895Z,3.63
2018-07-20T15:10:40.713Z,3.23
2018-07-20T15:13:16.293Z,3.67
2018-07-20T15:15:47.999Z,3.60
2018-07-20T15:18:19.969Z,3.77
2018-07-20T15:20:49.927Z,3.40
2018-07-20T15:23:20.611Z,3.20
2018-07-20T15:25:52.695Z,3.70
2018-07-20T15:28:22.452Z,3.57
2018-07-20T15:30:56.175Z,2.87
2018-07-20T15:33:26.237Z,3.23
2018-07-20T15:35:58.055Z,3.50
2018-07-20T15:38:28.605Z,3.40
2018-07-20T15:41:01.126Z,3.70
2018-07-20T15:43:53.687Z,6.37
2018-07-20T15:46:24.308Z,4.07
2018-07-20T15:48:55.038Z,3.63
2018-07-20T15:54:21.197Z,3.93
2018-07-20T15:56:57.777Z,4.00
2018-07-20T15:59:27.620Z,3.80
2018-07-20T16:02:07.360Z,4.43
2018-07-20T16:07:34.583Z,4.10
2018-07-20T16:10:05.516Z,3.93
2018-07-20T16:12:36.123Z,4.53
2018-07-20T16:15:06.819Z,4.17
2018-07-20T16:18:46.103Z,4.30
2018-07-20T16:21:16.013Z,5.53
2018-07-20T16:24:09.098Z,5.00
2018-07-20T16:26:41.801Z,4.97
2018-07-20T16:29:11.686Z,5.70
2018-07-20T16:31:41.665Z,5.67
2018-07-20T16:34:11.582Z,5.53
2018-07-20T16:36:41.351Z,5.43
2018-07-20T16:39:11.839Z,5.23
2018-07-20T16:41:42.097Z,4.73
2018-07-20T16:44:13.147Z,4.57
2018-07-20T16:46:44.540Z,4.70
2018-07-20T16:49:14.424Z,4.73
2018-07-20T16:57:28.700Z,4.00
2018-07-20T16:59:59.950Z,4.20
2018-07-20T17:02:29.870Z,4.03
2018-07-20T17:05:06.164Z,4.37
2018-07-20T17:07:42.082Z,4.37
2018-07-20T17:10:12.449Z,4.07
2018-07-20T17:12:44.099Z,3.70
2018-07-20T17:15:14.945Z,3.10
2018-07-20T17:17:46.364Z,3.00
2018-07-20T17:20:16.308Z,3.47
2018-07-20T17:22:46.901Z,5.57
2018-07-20T17:25:16.913Z,3.70
2018-07-20T17:30:52.679Z,2.87
2018-07-20T17:33:25.359Z,2.70
2018-07-20T17:36:03.535Z,3.73
2018-07-20T17:41:12.631Z,3.20
2018-07-20T17:43:43.740Z,3.30
2018-07-20T17:46:40.107Z,3.20
2018-07-20T17:55:15.737Z,4.07
2018-07-20T17:57:54.473Z,3.40
2018-07-20T18:03:25.109Z,3.20
2018-07-20T18:05:55.494Z,3.20
2018-07-20T18:13:52.104Z,3.07
2018-07-20T18:16:22.403Z,3.57
2018-07-20T18:18:57.335Z,3.33
2018-07-20T18:21:30.873Z,3.10
2018-07-20T18:24:06.320Z,3.20
2018-07-20T18:26:42.660Z,3.03
2018-07-20T18:29:13.580Z,3.20
2018-07-20T18:32:01.368Z,3.20
2018-07-20T18:34:34.159Z,3.47
2018-07-20T18:39:57.199Z,3.30
2018-07-20T18:45:27.970Z,3.17
2018-07-20T18:47:58.733Z,3.43
2018-07-20T18:51:13.081Z,3.17
2018-07-20T18:53:47.201Z,3.10
2018-07-20T18:56:20.349Z,3.30
2018-07-20T18:58:53.291Z,3.30
2018-07-20T19:01:48.565Z,3.40
2018-07-20T19:04:21.101Z,3.23
2018-07-20T19:06:51.969Z,3.47
2018-07-20T19:09:29.745Z,3.17
2018-07-20T19:12:03.184Z,3.30
2018-07-20T19:17:31.379Z,3.30
2018-07-20T19:20:12.892Z,3.20
2018-07-20T19:22:45.053Z,3.30
2018-07-20T19:25:27.777Z,3.73
2018-07-20T19:27:57.787Z,3.60
2018-07-20T19:30:28.102Z,3.20
2018-07-20T19:33:00.874Z,3.43
2018-07-20T19:35:33.407Z,3.73
2018-07-20T19:46:50.640Z,3.83
2018-07-20T19:49:31.772Z,2.93
2018-07-20T19:52:04.493Z,3.20
2018-07-20T19:54:41.461Z,3.10
2018-07-20T19:57:14.851Z,3.20
2018-07-20T19:59:49.224Z,3.00
2018-07-20T20:02:19.609Z,3.60
2018-07-20T20:04:55.247Z,3.67
2018-07-20T20:07:35.115Z,3.53
2018-07-20T20:10:07.126Z,3.60
2018-07-20T20:12:39.058Z,3.33
2018-07-20T20:15:10.930Z,3.37
2018-07-20T20:17:43.295Z,3.70
2018-07-20T20:20:21.790Z,3.77
2018-07-20T20:22:59.448Z,3.50
2018-07-20T20:25:36.342Z,3.30
2018-07-20T20:28:14.904Z,3.60
2018-07-20T20:31:01.507Z,3.37
2018-07-20T20:33:41.768Z,3.60
2018-07-20T20:36:24.829Z,4.00
2018-07-20T20:38:55.538Z,4.00
2018-07-20T20:41:35.477Z,3.57
2018-07-20T20:44:24.453Z,5.10
2018-07-20T20:46:58.284Z,3.87
2018-07-20T20:49:28.228Z,4.40
2018-07-20T20:52:00.581Z,3.67
2018-07-20T20:54:48.034Z,3.70
2018-07-20T20:57:19.989Z,4.27
2018-07-20T20:59:51.100Z,4.10
2018-07-20T21:02:25.081Z,5.83
2018-07-20T21:04:55.563Z,20.87
2018-07-20T21:07:25.496Z,7.17
2018-07-20T21:09:56.265Z,5.00
2018-07-20T21:12:26.929Z,4.77
2018-07-20T21:14:57.068Z,4.90
2018-07-20T21:17:27.724Z,5.40
2018-07-20T21:19:58.668Z,4.90
2018-07-20T21:25:13.502Z,4.97
2018-07-20T21:27:43.350Z,5.40
2018-07-20T21:30:14.928Z,4.70
2018-07-20T21:32:44.718Z,4.90
2018-07-20T21:35:15.054Z,5.60
2018-07-20T21:37:44.900Z,5.30
2018-07-20T21:40:17.173Z,4.60
2018-07-20T21:42:50.696Z,4.67
2018-07-20T21:45:20.982Z,5.20
2018-07-20T21:47:52.239Z,5.10
2018-07-20T21:50:23.618Z,4.67
2018-07-20T21:52:53.659Z,4.83
2018-07-20T21:55:23.571Z,4.87
2018-07-20T21:57:54.031Z,5.10
2018-07-20T22:00:24.726Z,4.87
2018-07-20T22:02:54.453Z,5.03
2018-07-20T22:05:24.186Z,5.03
2018-07-20T22:07:54.279Z,6.10
2018-07-20T22:10:24.380Z,5.13
2018-07-20T22:12:54.330Z,6.03
2018-07-20T22:15:29.368Z,6.20
2018-07-20T22:17:59.388Z,5.37
2018-07-20T22:20:29.293Z,5.13
2018-07-20T22:22:59.110Z,5.20
2018-07-20T22:25:30.242Z,5.33
2018-07-20T22:28:00.544Z,5.67
2018-07-20T22:30:30.222Z,6.67
2018-07-20T22:33:00.380Z,6.00
2018-07-20T22:35:30.156Z,6.30
2018-07-20T22:37:59.987Z,6.40
2018-07-20T22:40:29.795Z,6.10
2018-07-20T22:43:05.451Z,6.67
2018-07-20T22:45:35.275Z,6.20
2018-07-20T22:48:05.103Z,6.00
2018-07-20T22:50:38.623Z,5.80
2018-07-20T22:53:08.358Z,6.27
2018-07-20T22:55:38.280Z,6.70
2018-07-20T22:58:08.154Z,6.43
2018-07-20T23:00:38.580Z,6.27
2018-07-20T23:03:08.403Z,6.43
2018-07-20T23:05:38.188Z,6.70
2018-07-20T23:08:08.439Z,6.73
2018-07-20T23:10:38.831Z,7.10
2018-07-20T23:13:08.564Z,7.53
2018-07-20T23:15:40.833Z,6.80
2018-07-20T23:18:10.652Z,7.10
2018-07-20T23:20:40.412Z,6.17
2018-07-20T23:23:10.277Z,6.87
2018-07-20T23:25:40.325Z,6.70
2018-07-20T23:28:10.188Z,6.50
2018-07-20T23:30:39.921Z,6.80
2018-07-20T23:33:10.430Z,6.90
2018-07-20T23:35:40.380Z,7.00
2018-07-20T23:38:10.324Z,6.70
2018-07-20T23:40:44.073Z,6.67
2018-07-20T23:43:14.054Z,7.10
2018-07-20T23:45:44.094Z,6.60
2018-07-20T23:48:18.107Z,6.77
2018-07-20T23:50:53.219Z,6.57
2018-07-20T23:53:23.285Z,7.13
2018-07-20T23:55:54.554Z,6.93
2018-07-20T23:58:24.377Z,7.20
